sensor_id;sensor_type;location;lat;lon;timestamp;P1;durP1;ratioP1;P2;durP2;ratioP2
21356;SDS011;10836;53.068;18.234;2023-02-28T00:01:09;36.63;;;15.10;;
21356;SDS011;10836;53.068;18.234;2023-02-28T00:03:37;41.17;;;15.57;;
21356;SDS011;10836;53.068;18.234;2023-02-28T00:06:04;42.10;;;16.37;;
21356;SDS011;10836;53.068;18.234;2023-02-28T00:08:32;40.70;;;14.63;;
21356;SDS011;10836;53.068;18.234;2023-02-28T00:11:03;36.07;;;15.23;;
21356;SDS011;10836;53.068;18.234;2023-02-28T00:13:34;35.10;;;14.40;;
21356;SDS011;10836;53.068;18.234;2023-02-28T00:16:04;43.07;;;16.10;;
21356;SDS011;10836;53.068;18.234;2023-02-28T00:18:33;43.57;;;16.27;;
21356;SDS011;10836;53.068;18.234;2023-02-28T00:21:00;45.73;;;17.67;;
21356;SDS011;10836;53.068;18.234;2023-02-28T00:23:27;42.27;;;17.63;;
21356;SDS011;10836;53.068;18.234;2023-02-28T00:25:54;44.40;;;17.60;;
21356;SDS011;10836;53.068;18.234;2023-02-28T00:28:21;42.10;;;16.57;;
21356;SDS011;10836;53.068;18.234;2023-02-28T00:30:49;42.37;;;15.73;;
21356;SDS011;10836;53.068;18.234;2023-02-28T00:33:16;38.23;;;16.60;;
21356;SDS011;10836;53.068;18.234;2023-02-28T00:35:43;45.40;;;17.10;;
21356;SDS011;10836;53.068;18.234;2023-02-28T00:38:13;42.87;;;15.83;;
21356;SDS011;10836;53.068;18.234;2023-02-28T00:40:40;43.60;;;16.47;;
21356;SDS011;10836;53.068;18.234;2023-02-28T00:43:10;40.37;;;16.20;;
21356;SDS011;10836;53.068;18.234;2023-02-28T00:45:37;38.53;;;15.30;;
21356;SDS011;10836;53.068;18.234;2023-02-28T00:48:04;37.17;;;16.37;;
21356;SDS011;10836;53.068;18.234;2023-02-28T00:50:31;38.37;;;16.13;;
21356;SDS011;10836;53.068;18.234;2023-02-28T00:52:58;40.33;;;16.07;;
21356;SDS011;10836;53.068;18.234;2023-02-28T00:55:25;43.63;;;15.77;;
21356;SDS011;10836;53.068;18.234;2023-02-28T00:57:53;42.43;;;15.67;;
21356;SDS011;10836;53.068;18.234;2023-02-28T01:00:19;41.87;;;16.13;;
21356;SDS011;10836;53.068;18.234;2023-02-28T01:02:49;36.50;;;15.00;;
21356;SDS011;10836;53.068;18.234;2023-02-28T01:05:16;41.43;;;16.43;;
21356;SDS011;10836;53.068;18.234;2023-02-28T01:07:44;38.43;;;15.07;;
21356;SDS011;10836;53.068;18.234;2023-02-28T01:10:11;39.37;;;15.70;;
21356;SDS011;10836;53.068;18.234;2023-02-28T01:12:38;36.43;;;14.80;;
21356;SDS011;10836;53.068;18.234;2023-02-28T01:15:09;37.30;;;13.20;;
21356;SDS011;10836;53.068;18.234;2023-02-28T01:17:37;37.70;;;14.33;;
21356;SDS011;10836;53.068;18.234;2023-02-28T01:20:04;31.60;;;14.23;;
21356;SDS011;10836;53.068;18.234;2023-02-28T01:22:31;36.73;;;15.20;;
21356;SDS011;10836;53.068;18.234;2023-02-28T01:24:58;34.23;;;14.60;;
21356;SDS011;10836;53.068;18.234;2023-02-28T01:27:25;36.13;;;15.17;;
21356;SDS011;10836;53.068;18.234;2023-02-28T01:29:53;36.27;;;14.23;;
21356;SDS011;10836;53.068;18.234;2023-02-28T01:32:20;37.47;;;15.57;;
21356;SDS011;10836;53.068;18.234;2023-02-28T01:34:49;34.33;;;14.13;;
21356;SDS011;10836;53.068;18.234;2023-02-28T01:37:16;37.53;;;14.87;;
21356;SDS011;10836;53.068;18.234;2023-02-28T01:39:43;37.20;;;14.40;;
21356;SDS011;10836;53.068;18.234;2023-02-28T01:42:10;44.90;;;16.37;;
21356;SDS011;10836;53.068;18.234;2023-02-28T01:47:46;44.53;;;14.63;;
21356;SDS011;10836;53.068;18.234;2023-02-28T01:50:18;43.87;;;15.93;;
21356;SDS011;10836;53.068;18.234;2023-02-28T01:52:50;38.70;;;15.13;;
21356;SDS011;10836;53.068;18.234;2023-02-28T01:55:18;44.63;;;14.97;;
21356;SDS011;10836;53.068;18.234;2023-02-28T01:57:49;33.37;;;14.37;;
21356;SDS011;10836;53.068;18.234;2023-02-28T02:00:22;36.13;;;14.47;;
21356;SDS011;10836;53.068;18.234;2023-02-28T02:02:54;43.13;;;15.93;;
21356;SDS011;10836;53.068;18.234;2023-02-28T02:05:25;40.67;;;15.70;;
21356;SDS011;10836;53.068;18.234;2023-02-28T02:07:55;39.73;;;15.97;;
21356;SDS011;10836;53.068;18.234;2023-02-28T02:10:27;43.30;;;16.60;;
21356;SDS011;10836;53.068;18.234;2023-02-28T02:40:20;40.63;;;16.43;;
21356;SDS011;10836;53.068;18.234;2023-02-28T02:42:58;42.80;;;16.03;;
21356;SDS011;10836;53.068;18.234;2023-02-28T02:45:32;41.00;;;17.10;;
21356;SDS011;10836;53.068;18.234;2023-02-28T02:48:07;49.83;;;17.77;;
21356;SDS011;10836;53.068;18.234;2023-02-28T02:50:41;41.40;;;18.30;;
21356;SDS011;10836;53.068;18.234;2023-02-28T02:53:12;39.83;;;17.03;;
21356;SDS011;10836;53.068;18.234;2023-02-28T02:55:44;47.73;;;18.80;;
21356;SDS011;10836;53.068;18.234;2023-02-28T02:58:14;49.20;;;18.40;;
21356;SDS011;10836;53.068;18.234;2023-02-28T03:00:46;49.53;;;17.77;;
21356;SDS011;10836;53.068;18.234;2023-02-28T03:03:17;43.60;;;18.07;;
21356;SDS011;10836;53.068;18.234;2023-02-28T03:05:48;38.50;;;15.73;;
21356;SDS011;10836;53.068;18.234;2023-02-28T03:08:16;42.37;;;17.40;;
21356;SDS011;10836;53.068;18.234;2023-02-28T03:10:46;45.20;;;18.73;;
21356;SDS011;10836;53.068;18.234;2023-02-28T03:16:11;40.23;;;17.83;;
21356;SDS011;10836;53.068;18.234;2023-02-28T03:24:16;46.47;;;18.63;;
21356;SDS011;10836;53.068;18.234;2023-02-28T03:26:50;52.30;;;21.43;;
21356;SDS011;10836;53.068;18.234;2023-02-28T03:29:33;50.80;;;20.27;;
21356;SDS011;10836;53.068;18.234;2023-02-28T03:34:55;46.80;;;18.50;;
21356;SDS011;10836;53.068;18.234;2023-02-28T03:38:22;46.30;;;18.83;;
21356;SDS011;10836;53.068;18.234;2023-02-28T03:40:53;49.30;;;20.70;;
21356;SDS011;10836;53.068;18.234;2023-02-28T03:43:28;45.50;;;18.60;;
21356;SDS011;10836;53.068;18.234;2023-02-28T03:45:58;45.87;;;18.33;;
21356;SDS011;10836;53.068;18.234;2023-02-28T03:48:44;48.17;;;18.70;;
21356;SDS011;10836;53.068;18.234;2023-02-28T03:51:17;55.70;;;20.77;;
21356;SDS011;10836;53.068;18.234;2023-02-28T03:53:52;43.23;;;17.97;;
21356;SDS011;10836;53.068;18.234;2023-02-28T03:56:34;46.57;;;18.90;;
21356;SDS011;10836;53.068;18.234;2023-02-28T03:59:13;46.57;;;18.27;;
21356;SDS011;10836;53.068;18.234;2023-02-28T04:01:45;48.27;;;18.17;;
21356;SDS011;10836;53.068;18.234;2023-02-28T04:04:15;50.07;;;17.03;;
21356;SDS011;10836;53.068;18.234;2023-02-28T04:06:43;46.40;;;19.00;;
21356;SDS011;10836;53.068;18.234;2023-02-28T04:09:12;40.03;;;17.13;;
21356;SDS011;10836;53.068;18.234;2023-02-28T04:11:41;47.77;;;18.00;;
21356;SDS011;10836;53.068;18.234;2023-02-28T04:14:11;39.90;;;17.37;;
21356;SDS011;10836;53.068;18.234;2023-02-28T04:16:40;48.50;;;17.53;;
21356;SDS011;10836;53.068;18.234;2023-02-28T04:19:09;52.13;;;18.47;;
21356;SDS011;10836;53.068;18.234;2023-02-28T04:21:47;63.20;;;18.10;;
21356;SDS011;10836;53.068;18.234;2023-02-28T04:24:17;42.63;;;16.77;;
21356;SDS011;10836;53.068;18.234;2023-02-28T04:26:47;43.40;;;18.90;;
21356;SDS011;10836;53.068;18.234;2023-02-28T04:29:21;53.13;;;18.60;;
21356;SDS011;10836;53.068;18.234;2023-02-28T04:31:48;52.40;;;19.23;;
21356;SDS011;10836;53.068;18.234;2023-02-28T04:34:16;45.10;;;20.20;;
21356;SDS011;10836;53.068;18.234;2023-02-28T04:36:43;44.20;;;19.37;;
21356;SDS011;10836;53.068;18.234;2023-02-28T04:39:10;63.47;;;24.97;;
21356;SDS011;10836;53.068;18.234;2023-02-28T04:41:37;55.17;;;21.03;;
21356;SDS011;10836;53.068;18.234;2023-02-28T04:44:04;59.13;;;21.80;;
21356;SDS011;10836;53.068;18.234;2023-02-28T04:46:31;55.83;;;21.93;;
21356;SDS011;10836;53.068;18.234;2023-02-28T04:48:58;66.10;;;23.43;;
21356;SDS011;10836;53.068;18.234;2023-02-28T04:51:25;65.10;;;24.60;;
21356;SDS011;10836;53.068;18.234;2023-02-28T04:53:53;61.10;;;21.80;;
21356;SDS011;10836;53.068;18.234;2023-02-28T04:56:20;58.43;;;22.53;;
21356;SDS011;10836;53.068;18.234;2023-02-28T04:58:48;52.27;;;19.90;;
21356;SDS011;10836;53.068;18.234;2023-02-28T05:01:20;74.27;;;25.53;;
21356;SDS011;10836;53.068;18.234;2023-02-28T05:03:52;81.60;;;27.30;;
21356;SDS011;10836;53.068;18.234;2023-02-28T05:06:21;63.90;;;23.73;;
21356;SDS011;10836;53.068;18.234;2023-02-28T05:08:51;67.20;;;23.33;;
21356;SDS011;10836;53.068;18.234;2023-02-28T05:11:20;59.90;;;23.27;;
21356;SDS011;10836;53.068;18.234;2023-02-28T05:14:19;58.13;;;20.27;;
21356;SDS011;10836;53.068;18.234;2023-02-28T05:16:46;55.77;;;20.77;;
21356;SDS011;10836;53.068;18.234;2023-02-28T05:19:13;62.73;;;21.70;;
21356;SDS011;10836;53.068;18.234;2023-02-28T05:21:41;58.07;;;20.43;;
21356;SDS011;10836;53.068;18.234;2023-02-28T05:24:16;62.83;;;22.00;;
21356;SDS011;10836;53.068;18.234;2023-02-28T05:26:50;65.30;;;25.33;;
21356;SDS011;10836;53.068;18.234;2023-02-28T05:29:18;46.33;;;21.37;;
21356;SDS011;10836;53.068;18.234;2023-02-28T05:31:45;56.53;;;21.83;;
21356;SDS011;10836;53.068;18.234;2023-02-28T05:34:13;57.57;;;22.37;;
21356;SDS011;10836;53.068;18.234;2023-02-28T05:36:42;51.63;;;20.67;;
21356;SDS011;10836;53.068;18.234;2023-02-28T05:39:09;55.63;;;22.80;;
21356;SDS011;10836;53.068;18.234;2023-02-28T05:41:40;51.43;;;20.60;;
21356;SDS011;10836;53.068;18.234;2023-02-28T05:44:09;59.30;;;21.60;;
21356;SDS011;10836;53.068;18.234;2023-02-28T05:46:36;56.10;;;21.00;;
21356;SDS011;10836;53.068;18.234;2023-02-28T05:49:03;56.20;;;22.23;;
21356;SDS011;10836;53.068;18.234;2023-02-28T05:51:30;45.20;;;19.60;;
21356;SDS011;10836;53.068;18.234;2023-02-28T05:53:59;55.97;;;20.93;;
21356;SDS011;10836;53.068;18.234;2023-02-28T05:56:27;48.10;;;19.87;;
21356;SDS011;10836;53.068;18.234;2023-02-28T05:58:55;56.07;;;21.43;;
21356;SDS011;10836;53.068;18.234;2023-02-28T06:03:52;55.43;;;21.63;;
21356;SDS011;10836;53.068;18.234;2023-02-28T06:06:18;58.07;;;21.90;;
21356;SDS011;10836;53.068;18.234;2023-02-28T06:08:46;57.03;;;20.97;;
21356;SDS011;10836;53.068;18.234;2023-02-28T06:11:13;65.77;;;23.20;;
21356;SDS011;10836;53.068;18.234;2023-02-28T06:13:40;57.50;;;21.90;;
21356;SDS011;10836;53.068;18.234;2023-02-28T06:16:08;54.47;;;20.67;;
21356;SDS011;10836;53.068;18.234;2023-02-28T06:18:37;56.50;;;22.20;;
21356;SDS011;10836;53.068;18.234;2023-02-28T06:21:04;44.53;;;19.53;;
21356;SDS011;10836;53.068;18.234;2023-02-28T06:23:32;46.33;;;19.13;;
21356;SDS011;10836;53.068;18.234;2023-02-28T06:25:59;43.67;;;18.57;;
21356;SDS011;10836;53.068;18.234;2023-02-28T06:28:26;43.67;;;17.87;;
21356;SDS011;10836;53.068;18.234;2023-02-28T06:30:53;48.83;;;17.73;;
21356;SDS011;10836;53.068;18.234;2023-02-28T06:33:20;43.07;;;18.97;;
21356;SDS011;10836;53.068;18.234;2023-02-28T06:35:49;46.40;;;19.27;;
21356;SDS011;10836;53.068;18.234;2023-02-28T06:38:17;47.07;;;19.40;;
21356;SDS011;10836;53.068;18.234;2023-02-28T06:40:44;43.40;;;18.47;;
21356;SDS011;10836;53.068;18.234;2023-02-28T06:43:11;45.10;;;17.80;;
21356;SDS011;10836;53.068;18.234;2023-02-28T06:45:43;46.60;;;18.37;;
21356;SDS011;10836;53.068;18.234;2023-02-28T06:48:10;45.97;;;18.07;;
21356;SDS011;10836;53.068;18.234;2023-02-28T06:50:37;41.87;;;20.00;;
21356;SDS011;10836;53.068;18.234;2023-02-28T06:53:04;55.43;;;21.53;;
21356;SDS011;10836;53.068;18.234;2023-02-28T06:55:31;50.43;;;22.60;;
21356;SDS011;10836;53.068;18.234;2023-02-28T06:57:58;53.70;;;22.57;;
21356;SDS011;10836;53.068;18.234;2023-02-28T07:00:25;54.93;;;23.07;;
21356;SDS011;10836;53.068;18.234;2023-02-28T07:02:52;55.97;;;24.80;;
21356;SDS011;10836;53.068;18.234;2023-02-28T07:05:21;47.43;;;25.83;;
21356;SDS011;10836;53.068;18.234;2023-02-28T07:07:48;57.13;;;28.33;;
21356;SDS011;10836;53.068;18.234;2023-02-28T07:10:15;52.17;;;26.40;;
21356;SDS011;10836;53.068;18.234;2023-02-28T07:12:46;49.83;;;22.50;;
21356;SDS011;10836;53.068;18.234;2023-02-28T07:15:12;48.40;;;22.03;;
21356;SDS011;10836;53.068;18.234;2023-02-28T07:17:40;55.27;;;27.10;;
21356;SDS011;10836;53.068;18.234;2023-02-28T07:20:07;62.73;;;30.80;;
21356;SDS011;10836;53.068;18.234;2023-02-28T07:22:35;78.43;;;36.83;;
21356;SDS011;10836;53.068;18.234;2023-02-28T07:25:02;84.97;;;40.80;;
21356;SDS011;10836;53.068;18.234;2023-02-28T07:27:29;61.33;;;30.23;;
21356;SDS011;10836;53.068;18.234;2023-02-28T07:29:56;75.57;;;39.10;;
21356;SDS011;10836;53.068;18.234;2023-02-28T07:32:23;86.30;;;44.23;;
21356;SDS011;10836;53.068;18.234;2023-02-28T07:34:51;91.75;;;44.97;;
21356;SDS011;10836;53.068;18.234;2023-02-28T07:37:18;92.05;;;47.85;;
21356;SDS011;10836;53.068;18.234;2023-02-28T07:39:45;88.60;;;48.17;;
21356;SDS011;10836;53.068;18.234;2023-02-28T07:42:12;84.57;;;44.97;;
21356;SDS011;10836;53.068;18.234;2023-02-28T07:44:39;107.03;;;51.58;;
21356;SDS011;10836;53.068;18.234;2023-02-28T07:47:07;109.85;;;56.88;;
21356;SDS011;10836;53.068;18.234;2023-02-28T07:49:35;114.72;;;58.30;;
21356;SDS011;10836;53.068;18.234;2023-02-28T07:52:04;94.82;;;49.20;;
21356;SDS011;10836;53.068;18.234;2023-02-28T07:54:32;93.75;;;48.28;;
21356;SDS011;10836;53.068;18.234;2023-02-28T07:57:00;101.78;;;49.92;;
21356;SDS011;10836;53.068;18.234;2023-02-28T07:59:27;88.22;;;45.88;;
21356;SDS011;10836;53.068;18.234;2023-02-28T08:01:58;80.40;;;40.65;;
21356;SDS011;10836;53.068;18.234;2023-02-28T08:04:25;77.10;;;40.45;;
21356;SDS011;10836;53.068;18.234;2023-02-28T08:06:52;74.38;;;39.55;;
21356;SDS011;10836;53.068;18.234;2023-02-28T08:09:19;83.50;;;41.63;;
21356;SDS011;10836;53.068;18.234;2023-02-28T08:11:47;80.68;;;42.72;;
21356;SDS011;10836;53.068;18.234;2023-02-28T08:14:13;78.15;;;40.03;;
21356;SDS011;10836;53.068;18.234;2023-02-28T08:16:40;168.50;;;65.75;;
21356;SDS011;10836;53.068;18.234;2023-02-28T08:19:09;243.38;;;87.55;;
21356;SDS011;10836;53.068;18.234;2023-02-28T08:21:36;131.93;;;55.15;;
21356;SDS011;10836;53.068;18.234;2023-02-28T08:24:03;95.47;;;43.65;;
21356;SDS011;10836;53.068;18.234;2023-02-28T08:26:30;100.82;;;46.40;;
21356;SDS011;10836;53.068;18.234;2023-02-28T08:28:57;83.38;;;39.80;;
21356;SDS011;10836;53.068;18.234;2023-02-28T08:31:27;61.38;;;30.70;;
21356;SDS011;10836;53.068;18.234;2023-02-28T08:33:54;48.28;;;26.88;;
21356;SDS011;10836;53.068;18.234;2023-02-28T08:36:25;56.55;;;29.95;;
21356;SDS011;10836;53.068;18.234;2023-02-28T08:38:55;53.17;;;27.70;;
21356;SDS011;10836;53.068;18.234;2023-02-28T08:41:23;60.67;;;31.67;;
21356;SDS011;10836;53.068;18.234;2023-02-28T08:43:50;54.92;;;30.13;;
21356;SDS011;10836;53.068;18.234;2023-02-28T08:46:17;51.15;;;27.40;;
21356;SDS011;10836;53.068;18.234;2023-02-28T08:48:44;50.97;;;26.05;;
21356;SDS011;10836;53.068;18.234;2023-02-28T08:51:13;44.00;;;24.40;;
21356;SDS011;10836;53.068;18.234;2023-02-28T08:53:49;46.42;;;25.63;;
21356;SDS011;10836;53.068;18.234;2023-02-28T08:56:16;51.22;;;27.88;;
21356;SDS011;10836;53.068;18.234;2023-02-28T08:58:44;55.10;;;28.85;;
21356;SDS011;10836;53.068;18.234;2023-02-28T09:01:13;46.65;;;25.95;;
21356;SDS011;10836;53.068;18.234;2023-02-28T09:03:45;46.85;;;23.95;;
21356;SDS011;10836;53.068;18.234;2023-02-28T09:06:15;45.40;;;24.10;;
21356;SDS011;10836;53.068;18.234;2023-02-28T09:08:43;44.88;;;23.50;;
21356;SDS011;10836;53.068;18.234;2023-02-28T09:11:11;34.97;;;18.75;;
21356;SDS011;10836;53.068;18.234;2023-02-28T09:13:39;40.75;;;20.45;;
21356;SDS011;10836;53.068;18.234;2023-02-28T09:16:08;37.95;;;19.60;;
21356;SDS011;10836;53.068;18.234;2023-02-28T09:18:38;41.22;;;19.30;;
21356;SDS011;10836;53.068;18.234;2023-02-28T09:21:06;45.65;;;22.42;;
21356;SDS011;10836;53.068;18.234;2023-02-28T09:23:35;54.85;;;23.75;;
21356;SDS011;10836;53.068;18.234;2023-02-28T09:26:05;37.72;;;16.33;;
21356;SDS011;10836;53.068;18.234;2023-02-28T09:28:32;31.15;;;12.80;;
21356;SDS011;10836;53.068;18.234;2023-02-28T09:30:59;24.20;;;11.32;;
21356;SDS011;10836;53.068;18.234;2023-02-28T09:33:26;21.38;;;8.38;;
21356;SDS011;10836;53.068;18.234;2023-02-28T09:35:58;18.13;;;7.88;;
21356;SDS011;10836;53.068;18.234;2023-02-28T09:38:27;14.88;;;6.60;;
21356;SDS011;10836;53.068;18.234;2023-02-28T09:40:56;14.23;;;6.97;;
21356;SDS011;10836;53.068;18.234;2023-02-28T09:43:29;11.35;;;6.18;;
21356;SDS011;10836;53.068;18.234;2023-02-28T09:46:44;10.93;;;4.32;;
21356;SDS011;10836;53.068;18.234;2023-02-28T09:49:14;13.25;;;6.30;;
21356;SDS011;10836;53.068;18.234;2023-02-28T09:54:19;13.90;;;7.50;;
21356;SDS011;10836;53.068;18.234;2023-02-28T09:59:44;19.60;;;8.80;;
21356;SDS011;10836;53.068;18.234;2023-02-28T10:05:27;18.73;;;8.13;;
21356;SDS011;10836;53.068;18.234;2023-02-28T10:10:44;13.07;;;6.47;;
21356;SDS011;10836;53.068;18.234;2023-02-28T10:13:22;12.88;;;6.40;;
21356;SDS011;10836;53.068;18.234;2023-02-28T10:15:55;14.48;;;7.10;;
21356;SDS011;10836;53.068;18.234;2023-02-28T10:18:34;13.20;;;7.50;;
21356;SDS011;10836;53.068;18.234;2023-02-28T10:21:10;16.65;;;7.90;;
21356;SDS011;10836;53.068;18.234;2023-02-28T10:24:03;14.50;;;6.90;;
21356;SDS011;10836;53.068;18.234;2023-02-28T10:26:38;8.98;;;4.53;;
21356;SDS011;10836;53.068;18.234;2023-02-28T10:29:08;13.18;;;5.85;;
21356;SDS011;10836;53.068;18.234;2023-02-28T10:31:36;14.73;;;7.40;;
21356;SDS011;10836;53.068;18.234;2023-02-28T10:34:03;19.60;;;8.77;;
21356;SDS011;10836;53.068;18.234;2023-02-28T10:36:32;16.95;;;7.03;;
21356;SDS011;10836;53.068;18.234;2023-02-28T10:39:02;16.58;;;7.40;;
21356;SDS011;10836;53.068;18.234;2023-02-28T10:42:00;18.00;;;8.50;;
21356;SDS011;10836;53.068;18.234;2023-02-28T10:44:27;19.15;;;9.18;;
21356;SDS011;10836;53.068;18.234;2023-02-28T10:46:54;18.83;;;8.60;;
21356;SDS011;10836;53.068;18.234;2023-02-28T10:49:26;20.50;;;9.10;;
21356;SDS011;10836;53.068;18.234;2023-02-28T10:51:56;18.27;;;8.32;;
21356;SDS011;10836;53.068;18.234;2023-02-28T10:54:35;19.33;;;9.00;;
21356;SDS011;10836;53.068;18.234;2023-02-28T10:57:18;18.47;;;8.07;;
21356;SDS011;10836;53.068;18.234;2023-02-28T10:59:45;16.95;;;7.63;;
21356;SDS011;10836;53.068;18.234;2023-02-28T11:02:32;18.35;;;8.65;;
21356;SDS011;10836;53.068;18.234;2023-02-28T11:05:00;14.80;;;7.63;;
21356;SDS011;10836;53.068;18.234;2023-02-28T11:07:27;17.60;;;7.93;;
21356;SDS011;10836;53.068;18.234;2023-02-28T11:10:07;16.75;;;6.80;;
21356;SDS011;10836;53.068;18.234;2023-02-28T11:12:44;14.43;;;6.68;;
21356;SDS011;10836;53.068;18.234;2023-02-28T11:20:51;12.48;;;6.13;;
21356;SDS011;10836;53.068;18.234;2023-02-28T11:23:20;13.45;;;6.18;;
21356;SDS011;10836;53.068;18.234;2023-02-28T11:25:49;16.88;;;7.70;;
21356;SDS011;10836;53.068;18.234;2023-02-28T11:28:33;15.30;;;6.95;;
21356;SDS011;10836;53.068;18.234;2023-02-28T11:36:17;13.48;;;6.20;;
21356;SDS011;10836;53.068;18.234;2023-02-28T11:38:47;13.32;;;6.20;;
21356;SDS011;10836;53.068;18.234;2023-02-28T11:46:50;11.68;;;5.65;;
21356;SDS011;10836;53.068;18.234;2023-02-28T11:49:27;11.48;;;5.50;;
21356;SDS011;10836;53.068;18.234;2023-02-28T11:51:59;13.73;;;6.22;;
21356;SDS011;10836;53.068;18.234;2023-02-28T11:57:16;17.27;;;7.00;;
21356;SDS011;10836;53.068;18.234;2023-02-28T12:02:52;13.55;;;6.75;;
21356;SDS011;10836;53.068;18.234;2023-02-28T12:05:24;13.75;;;6.53;;
21356;SDS011;10836;53.068;18.234;2023-02-28T12:08:03;12.77;;;6.70;;
21356;SDS011;10836;53.068;18.234;2023-02-28T12:10:56;11.75;;;5.20;;
21356;SDS011;10836;53.068;18.234;2023-02-28T12:13:39;17.45;;;7.18;;
21356;SDS011;10836;53.068;18.234;2023-02-28T12:16:20;13.95;;;6.88;;
21356;SDS011;10836;53.068;18.234;2023-02-28T12:21:50;17.95;;;7.13;;
21356;SDS011;10836;53.068;18.234;2023-02-28T12:24:27;14.00;;;6.50;;
21356;SDS011;10836;53.068;18.234;2023-02-28T12:27:07;14.77;;;6.25;;
21356;SDS011;10836;53.068;18.234;2023-02-28T12:29:50;13.38;;;6.93;;
21356;SDS011;10836;53.068;18.234;2023-02-28T12:32:27;17.30;;;7.13;;
21356;SDS011;10836;53.068;18.234;2023-02-28T12:35:03;15.73;;;7.10;;
21356;SDS011;10836;53.068;18.234;2023-02-28T12:37:49;14.90;;;7.60;;
21356;SDS011;10836;53.068;18.234;2023-02-28T12:40:25;14.98;;;7.15;;
21356;SDS011;10836;53.068;18.234;2023-02-28T12:43:00;15.07;;;7.05;;
21356;SDS011;10836;53.068;18.234;2023-02-28T12:45:40;16.52;;;7.72;;
21356;SDS011;10836;53.068;18.234;2023-02-28T12:48:13;16.42;;;7.75;;
21356;SDS011;10836;53.068;18.234;2023-02-28T12:50:47;14.85;;;6.95;;
21356;SDS011;10836;53.068;18.234;2023-02-28T12:58:33;16.50;;;7.30;;
21356;SDS011;10836;53.068;18.234;2023-02-28T13:01:12;12.27;;;6.22;;
21356;SDS011;10836;53.068;18.234;2023-02-28T13:09:38;15.40;;;6.13;;
21356;SDS011;10836;53.068;18.234;2023-02-28T13:12:15;15.15;;;6.65;;
21356;SDS011;10836;53.068;18.234;2023-02-28T13:14:43;16.20;;;6.32;;
21356;SDS011;10836;53.068;18.234;2023-02-28T13:17:11;14.97;;;6.43;;
21356;SDS011;10836;53.068;18.234;2023-02-28T13:27:50;14.10;;;5.78;;
21356;SDS011;10836;53.068;18.234;2023-02-28T13:35:46;16.92;;;7.13;;
21356;SDS011;10836;53.068;18.234;2023-02-28T13:38:17;15.98;;;6.75;;
21356;SDS011;10836;53.068;18.234;2023-02-28T13:40:49;12.65;;;6.63;;
21356;SDS011;10836;53.068;18.234;2023-02-28T13:43:17;17.13;;;7.25;;
21356;SDS011;10836;53.068;18.234;2023-02-28T13:46:12;24.38;;;7.65;;
21356;SDS011;10836;53.068;18.234;2023-02-28T13:48:39;15.77;;;7.53;;
21356;SDS011;10836;53.068;18.234;2023-02-28T14:03:46;16.92;;;6.88;;
21356;SDS011;10836;53.068;18.234;2023-02-28T14:11:41;13.38;;;5.70;;
21356;SDS011;10836;53.068;18.234;2023-02-28T14:14:09;13.55;;;5.68;;
21356;SDS011;10836;53.068;18.234;2023-02-28T14:17:12;13.70;;;5.77;;
21356;SDS011;10836;53.068;18.234;2023-02-28T14:19:43;16.17;;;7.28;;
21356;SDS011;10836;53.068;18.234;2023-02-28T14:25:22;18.52;;;7.32;;
21356;SDS011;10836;53.068;18.234;2023-02-28T14:36:36;12.57;;;5.43;;
21356;SDS011;10836;53.068;18.234;2023-02-28T14:39:07;18.75;;;5.90;;
21356;SDS011;10836;53.068;18.234;2023-02-28T14:41:46;16.38;;;6.82;;
21356;SDS011;10836;53.068;18.234;2023-02-28T14:44:16;24.67;;;7.50;;
21356;SDS011;10836;53.068;18.234;2023-02-28T14:46:43;16.67;;;7.20;;
21356;SDS011;10836;53.068;18.234;2023-02-28T14:49:27;16.75;;;7.95;;
21356;SDS011;10836;53.068;18.234;2023-02-28T14:54:38;20.33;;;7.72;;
21356;SDS011;10836;53.068;18.234;2023-02-28T14:57:06;17.40;;;6.43;;
21356;SDS011;10836;53.068;18.234;2023-02-28T14:59:56;21.97;;;6.97;;
21356;SDS011;10836;53.068;18.234;2023-02-28T15:02:25;15.33;;;6.80;;
21356;SDS011;10836;53.068;18.234;2023-02-28T15:04:57;17.03;;;6.33;;
21356;SDS011;10836;53.068;18.234;2023-02-28T15:07:26;16.70;;;7.00;;
21356;SDS011;10836;53.068;18.234;2023-02-28T15:13:19;23.83;;;6.67;;
21356;SDS011;10836;53.068;18.234;2023-02-28T15:15:41;16.17;;;6.50;;
21356;SDS011;10836;53.068;18.234;2023-02-28T15:18:32;24.80;;;7.50;;
21356;SDS011;10836;53.068;18.234;2023-02-28T15:21:03;24.07;;;8.83;;
21356;SDS011;10836;53.068;18.234;2023-02-28T15:23:34;26.60;;;9.80;;
21356;SDS011;10836;53.068;18.234;2023-02-28T15:26:03;17.10;;;6.80;;
21356;SDS011;10836;53.068;18.234;2023-02-28T15:28:31;23.67;;;7.07;;
21356;SDS011;10836;53.068;18.234;2023-02-28T15:31:00;21.13;;;7.50;;
21356;SDS011;10836;53.068;18.234;2023-02-28T15:33:30;21.87;;;8.67;;
21356;SDS011;10836;53.068;18.234;2023-02-28T15:36:32;19.77;;;7.97;;
21356;SDS011;10836;53.068;18.234;2023-02-28T15:38:54;25.83;;;9.43;;
21356;SDS011;10836;53.068;18.234;2023-02-28T15:41:36;22.30;;;8.50;;
21356;SDS011;10836;53.068;18.234;2023-02-28T15:44:41;20.37;;;8.07;;
21356;SDS011;10836;53.068;18.234;2023-02-28T15:47:04;25.43;;;9.47;;
21356;SDS011;10836;53.068;18.234;2023-02-28T15:49:38;29.60;;;11.93;;
21356;SDS011;10836;53.068;18.234;2023-02-28T15:52:15;28.13;;;11.03;;
21356;SDS011;10836;53.068;18.234;2023-02-28T15:54:45;31.00;;;11.93;;
21356;SDS011;10836;53.068;18.234;2023-02-28T15:57:15;32.57;;;11.43;;
21356;SDS011;10836;53.068;18.234;2023-02-28T16:00:08;28.57;;;10.83;;
21356;SDS011;10836;53.068;18.234;2023-02-28T16:02:38;27.13;;;10.10;;
21356;SDS011;10836;53.068;18.234;2023-02-28T16:07:33;26.47;;;10.87;;
21356;SDS011;10836;53.068;18.234;2023-02-28T16:10:01;21.20;;;10.07;;
21356;SDS011;10836;53.068;18.234;2023-02-28T16:12:29;36.30;;;10.77;;
21356;SDS011;10836;53.068;18.234;2023-02-28T16:14:59;24.70;;;10.83;;
21356;SDS011;10836;53.068;18.234;2023-02-28T16:17:31;27.83;;;11.10;;
21356;SDS011;10836;53.068;18.234;2023-02-28T16:20:00;24.60;;;9.63;;
21356;SDS011;10836;53.068;18.234;2023-02-28T16:22:32;30.67;;;11.93;;
21356;SDS011;10836;53.068;18.234;2023-02-28T16:24:59;41.53;;;14.07;;
21356;SDS011;10836;53.068;18.234;2023-02-28T16:27:28;28.90;;;12.80;;
21356;SDS011;10836;53.068;18.234;2023-02-28T16:29:57;30.67;;;12.53;;
21356;SDS011;10836;53.068;18.234;2023-02-28T16:32:25;33.47;;;13.57;;
21356;SDS011;10836;53.068;18.234;2023-02-28T16:34:52;35.37;;;14.57;;
21356;SDS011;10836;53.068;18.234;2023-02-28T16:37:19;32.07;;;12.57;;
21356;SDS011;10836;53.068;18.234;2023-02-28T16:39:46;38.70;;;15.83;;
21356;SDS011;10836;53.068;18.234;2023-02-28T16:42:21;41.20;;;16.37;;
21356;SDS011;10836;53.068;18.234;2023-02-28T16:44:51;41.30;;;15.43;;
21356;SDS011;10836;53.068;18.234;2023-02-28T16:47:19;45.43;;;16.70;;
21356;SDS011;10836;53.068;18.234;2023-02-28T16:49:47;40.77;;;16.60;;
21356;SDS011;10836;53.068;18.234;2023-02-28T16:52:14;54.17;;;19.70;;
21356;SDS011;10836;53.068;18.234;2023-02-28T16:54:41;39.73;;;15.10;;
21356;SDS011;10836;53.068;18.234;2023-02-28T16:57:17;47.07;;;16.87;;
21356;SDS011;10836;53.068;18.234;2023-02-28T16:59:48;55.13;;;18.63;;